Time;durP1;ratioP1;P1;durP2;ratioP2;P2;SDS_P1;SDS_P2;PMS_P1;PMS_P2;Temp;Humidity;BMP_temperature;BMP_pressure;BME280_temperature;BME280_humidity;BME280_pressure;Samples;Min_cycle;Max_cycle;Signal;HPM_P1;HPM_P2
2023/09/17 00:02:22;;;;;;;4.83;3.57;;;19.50;31.70;;;;;;5054408;28;20210;-70
2023/09/17 00:04:47;;;;;;;4.60;3.63;;;19.40;31.20;;;;;;5053343;28;20178;-70
2023/09/17 00:07:13;;;;;;;4.17;3.47;;;19.40;31.70;;;;;;5054531;28;20175;-70
2023/09/17 00:09:38;;;;;;;5.30;4.00;;;19.30;32.10;;;;;;5054447;28;20175;-71
2023/09/17 00:12:05;;;;;;;4.10;3.40;;;19.30;31.90;;;;;;5052717;28;20241;-69
2023/09/17 00:14:30;;;;;;;6.17;3.53;;;19.20;32.00;;;;;;5070294;28;20683;-70
2023/09/17 00:16:56;;;;;;;4.53;3.93;;;19.20;32.70;;;;;;5074288;28;20412;-70
2023/09/17 00:19:21;;;;;;;4.47;3.90;;;19.10;32.90;;;;;;5074410;28;20538;-70
2023/09/17 00:21:47;;;;;;;4.77;3.70;;;19.00;33.50;;;;;;5072504;28;20620;-70
2023/09/17 00:24:12;;;;;;;5.03;4.50;;;19.00;33.70;;;;;;5074179;28;20659;-70
2023/09/17 00:26:39;;;;;;;6.33;4.07;;;18.90;33.50;;;;;;5058846;28;20279;-70
2023/09/17 00:29:04;;;;;;;5.03;3.97;;;18.80;33.50;;;;;;5054121;28;20258;-70
2023/09/17 00:31:30;;;;;;;4.90;3.60;;;18.80;33.10;;;;;;5053682;28;20514;-70
2023/09/17 00:33:55;;;;;;;6.83;4.03;;;18.80;33.10;;;;;;5054062;28;20182;-70
2023/09/17 00:36:22;;;;;;;5.50;4.27;;;18.70;33.10;;;;;;5054112;28;20204;-69
2023/09/17 00:38:48;;;;;;;6.43;4.57;;;18.70;33.10;;;;;;5054744;28;20554;-69
2023/09/17 00:41:13;;;;;;;6.13;5.20;;;18.70;34.20;;;;;;5067922;28;20515;-69
2023/09/17 00:43:39;;;;;;;4.73;3.83;;;18.60;34.50;;;;;;5074162;28;20268;-70
2023/09/17 00:46:05;;;;;;;5.67;3.93;;;18.60;34.70;;;;;;5074171;28;20240;-70
2023/09/17 00:48:31;;;;;;;5.10;4.23;;;18.60;35.10;;;;;;5073829;28;20186;-70
2023/09/17 00:50:57;;;;;;;4.60;3.50;;;18.50;35.60;;;;;;5072388;28;20487;-70
2023/09/17 00:53:24;;;;;;;4.37;3.03;;;18.50;36.10;;;;;;5073797;28;20408;-70
2023/09/17 00:55:50;;;;;;;3.80;3.40;;;18.40;36.50;;;;;;5073323;28;20648;-70
2023/09/17 00:58:16;;;;;;;4.43;3.60;;;18.40;36.00;;;;;;5073658;28;20417;-71
2023/09/17 01:00:43;;;;;;;5.00;3.77;;;18.30;36.50;;;;;;5073414;28;20423;-70
2023/09/17 01:03:09;;;;;;;5.30;3.67;;;18.30;37.00;;;;;;5073242;28;20296;-70
2023/09/17 01:05:41;;;;;;;5.80;4.30;;;18.30;36.30;;;;;;5059116;28;20491;-70
2023/09/17 01:08:07;;;;;;;4.40;3.70;;;18.30;36.60;;;;;;5051996;28;20432;-70
2023/09/17 01:10:34;;;;;;;4.27;3.87;;;18.30;37.90;;;;;;5053117;28;20410;-70
2023/09/17 01:13:01;;;;;;;5.80;4.07;;;18.20;37.40;;;;;;5053296;28;20214;-71
2023/09/17 01:15:27;;;;;;;5.67;4.60;;;18.20;37.80;;;;;;5052997;28;20439;-71
2023/09/17 01:17:54;;;;;;;4.90;4.20;;;18.20;38.20;;;;;;5053530;28;20409;-70
2023/09/17 01:20:25;;;;;;;5.50;4.47;;;18.30;37.70;;;;;;5054484;28;20182;-70
2023/09/17 01:23:03;;;;;;;4.70;3.60;;;18.10;38.10;;;;;;5061984;28;20509;-70
2023/09/17 01:25:35;;;;;;;5.10;3.60;;;18.00;38.60;;;;;;5073613;28;20546;-70
2023/09/17 01:28:02;;;;;;;6.63;4.90;;;18.00;38.60;;;;;;5072330;28;20424;-70
2023/09/17 01:30:27;;;;;;;4.73;3.40;;;18.00;39.40;;;;;;5073133;28;20839;-69
2023/09/17 01:32:53;;;;;;;4.50;3.47;;;17.90;39.70;;;;;;5072487;28;20519;-70
2023/09/17 01:35:19;;;;;;;4.77;4.00;;;17.90;39.60;;;;;;5072865;28;20656;-70
2023/09/17 01:37:59;;;;;;;4.50;4.00;;;17.80;40.60;;;;;;5062787;28;20421;-71
2023/09/17 01:40:25;;;;;;;5.57;4.17;;;17.80;40.10;;;;;;5052804;28;20413;-70
2023/09/17 01:42:52;;;;;;;4.10;3.70;;;17.90;40.80;;;;;;5052540;28;20479;-69
2023/09/17 01:45:18;;;;;;;4.40;4.00;;;17.90;40.80;;;;;;5052340;28;20460;-69
2023/09/17 01:47:47;;;;;;;4.70;3.90;;;17.90;39.90;;;;;;5051627;28;20483;-70
2023/09/17 01:50:15;;;;;;;5.00;4.43;;;18.00;39.50;;;;;;5052759;28;20463;-70
2023/09/17 01:52:43;;;;;;;4.43;3.97;;;18.00;39.60;;;;;;5051305;28;20464;-69
2023/09/17 01:55:09;;;;;;;4.90;4.40;;;18.00;39.30;;;;;;5053547;28;20532;-69
2023/09/17 01:57:35;;;;;;;3.93;3.53;;;18.00;39.60;;;;;;5052243;28;20448;-70
2023/09/17 02:00:14;;;;;;;4.63;4.00;;;18.00;39.60;;;;;;5051333;28;20449;-70
2023/09/17 02:02:49;;;;;;;4.90;3.67;;;18.00;40.00;;;;;;5056415;22;20565;-72
2023/09/17 02:05:20;;;;;;;4.33;3.87;;;17.90;38.90;;;;;;5015288;28;20711;-71
2023/09/17 02:07:47;;;;;;;5.87;4.53;;;18.00;38.30;;;;;;5016110;28;20457;-72
2023/09/17 02:10:13;;;;;;;5.67;4.60;;;18.00;38.20;;;;;;5015068;28;20407;-72
2023/09/17 02:12:39;;;;;;;5.10;4.60;;;17.90;38.20;;;;;;5012678;28;20443;-71
2023/09/17 02:15:05;;;;;;;6.77;4.87;;;17.80;39.40;;;;;;5013892;28;20433;-71
2023/09/17 02:17:31;;;;;;;4.13;3.43;;;17.80;39.40;;;;;;5014963;28;20548;-71
2023/09/17 02:19:57;;;;;;;4.53;3.47;;;17.90;39.80;;;;;;5014518;28;20418;-71
2023/09/17 02:22:22;;;;;;;6.30;4.10;;;17.80;40.00;;;;;;5013409;28;20199;-72
2023/09/17 02:24:49;;;;;;;5.23;4.37;;;17.70;40.30;;;;;;5014851;28;20701;-72
2023/09/17 02:27:15;;;;;;;5.47;4.00;;;17.70;41.10;;;;;;5014901;28;20172;-72
2023/09/17 02:29:41;;;;;;;5.07;3.50;;;17.60;41.80;;;;;;5030010;28;20419;-72
2023/09/17 02:32:06;;;;;;;4.70;3.67;;;17.80;43.20;;;;;;5014676;28;20725;-72
2023/09/17 02:34:32;;;;;;;7.13;4.60;;;17.50;43.40;;;;;;5014571;28;20411;-72
2023/09/17 02:36:58;;;;;;;6.83;4.47;;;17.40;44.40;;;;;;5014685;28;20187;-72
2023/09/17 02:39:23;;;;;;;5.03;4.00;;;17.40;45.70;;;;;;5014675;28;20184;-72
2023/09/17 02:41:49;;;;;;;6.23;4.63;;;17.30;46.90;;;;;;5013269;28;20211;-72
2023/09/17 02:44:14;;;;;;;5.10;4.60;;;17.40;46.80;;;;;;5013480;28;20532;-72
2023/09/17 02:46:40;;;;;;;5.00;4.40;;;17.50;47.00;;;;;;5013479;28;20221;-72
2023/09/17 02:49:06;;;;;;;4.83;3.60;;;17.10;47.10;;;;;;5014360;28;20199;-72
2023/09/17 02:51:31;;;;;;;5.03;4.37;;;17.90;46.90;;;;;;5012624;28;20238;-72
2023/09/17 02:53:57;;;;;;;4.53;3.87;;;17.00;46.40;;;;;;5014199;28;20178;-72
2023/09/17 02:56:22;;;;;;;6.50;4.23;;;17.40;47.40;;;;;;5014234;28;20647;-72
2023/09/17 02:58:48;;;;;;;5.27;4.60;;;17.30;46.10;;;;;;5012950;28;20279;-72
2023/09/17 03:01:20;;;;;;;4.43;3.80;;;17.00;45.80;;;;;;5012519;28;20379;-72
2023/09/17 03:03:46;;;;;;;4.40;3.53;;;17.50;46.40;;;;;;5012416;28;20609;-72
2023/09/17 03:06:12;;;;;;;5.30;4.07;;;16.90;47.50;;;;;;5020864;28;20557;-72
2023/09/17 03:08:41;;;;;;;5.93;4.10;;;16.90;47.30;;;;;;5021357;28;20505;-72
2023/09/17 03:11:13;;;;;;;3.93;3.53;;;16.70;47.30;;;;;;5022331;28;20186;-72
2023/09/17 03:13:42;;;;;;;6.40;3.70;;;17.00;47.60;;;;;;5018721;28;20761;-71
2023/09/17 03:16:08;;;;;;;5.53;3.80;;;16.90;47.50;;;;;;5012400;28;20446;-70
2023/09/17 03:18:34;;;;;;;5.37;3.90;;;16.80;47.40;;;;;;5010735;28;20430;-70
2023/09/17 03:20:59;;;;;;;6.13;4.80;;;16.80;47.40;;;;;;5011960;28;20422;-69
2023/09/17 03:23:25;;;;;;;5.37;4.30;;;16.80;48.10;;;;;;5011483;28;20579;-70
2023/09/17 03:25:50;;;;;;;5.30;4.17;;;16.80;49.60;;;;;;5011980;28;20196;-70
2023/09/17 03:28:16;;;;;;;5.90;5.30;;;16.80;50.00;;;;;;5014307;28;20254;-70
2023/09/17 03:30:42;;;;;;;4.50;4.10;;;16.70;50.60;;;;;;5015112;28;20176;-70
2023/09/17 03:33:08;;;;;;;5.73;4.90;;;16.70;50.90;;;;;;5014863;28;20188;-70
2023/09/17 03:35:33;;;;;;;4.80;3.90;;;16.70;51.90;;;;;;5030047;28;20518;-70
2023/09/17 03:37:59;;;;;;;5.53;3.93;;;16.70;52.10;;;;;;5015102;28;20182;-70
2023/09/17 03:40:25;;;;;;;5.17;4.23;;;16.70;52.50;;;;;;5013636;28;20195;-70
2023/09/17 03:42:50;;;;;;;4.97;4.30;;;16.70;53.10;;;;;;5014748;28;20664;-70
2023/09/17 03:45:16;;;;;;;5.33;4.43;;;16.60;53.30;;;;;;5014870;28;20223;-70
2023/09/17 03:47:43;;;;;;;6.00;4.63;;;16.60;53.60;;;;;;5014824;28;20257;-70
2023/09/17 03:50:11;;;;;;;6.00;4.20;;;16.60;53.10;;;;;;5014687;28;20419;-70
2023/09/17 03:52:38;;;;;;;5.07;3.90;;;16.60;52.30;;;;;;5014643;28;20799;-70
2023/09/17 03:55:05;;;;;;;6.03;4.20;;;16.60;52.90;;;;;;5014885;28;20781;-70
2023/09/17 03:57:33;;;;;;;4.60;3.87;;;16.60;53.90;;;;;;5015078;28;20411;-70
2023/09/17 03:59:59;;;;;;;8.00;4.60;;;16.60;54.10;;;;;;5013555;28;20418;-69
2023/09/17 04:02:25;;;;;;;6.20;5.30;;;16.60;54.20;;;;;;5014172;28;20469;-71
2023/09/17 04:04:51;;;;;;;7.00;4.30;;;16.60;55.10;;;;;;5014961;28;20171;-71
2023/09/17 04:07:17;;;;;;;6.50;4.40;;;16.50;55.50;;;;;;5015081;28;20410;-71
2023/09/17 04:09:42;;;;;;;4.33;3.93;;;16.70;55.60;;;;;;5015296;28;20412;-69
2023/09/17 04:12:08;;;;;;;5.07;4.53;;;16.60;56.00;;;;;;5014873;28;20195;-71
2023/09/17 04:14:34;;;;;;;6.30;4.60;;;16.70;54.30;;;;;;5017509;28;20251;-72
2023/09/17 04:17:02;;;;;;;5.07;4.17;;;16.70;53.70;;;;;;5016623;28;20180;-72
2023/09/17 04:19:29;;;;;;;5.40;4.13;;;16.80;53.10;;;;;;5015974;28;20201;-70
2023/09/17 04:21:55;;;;;;;4.00;3.30;;;16.80;52.20;;;;;;5015334;28;20792;-72
2023/09/17 04:24:20;;;;;;;4.37;3.03;;;16.90;50.80;;;;;;5014120;28;20418;-71
2023/09/17 04:26:46;;;;;;;5.77;3.43;;;17.00;50.70;;;;;;5015274;28;20469;-72
2023/09/17 04:29:13;;;;;;;4.43;3.63;;;17.00;49.50;;;;;;5014586;28;20429;-71
2023/09/17 04:31:39;;;;;;;5.57;3.67;;;17.10;48.60;;;;;;5014464;28;20254;-71
2023/09/17 04:34:04;;;;;;;5.70;4.10;;;17.20;47.70;;;;;;5012942;28;20938;-72
2023/09/17 04:36:30;;;;;;;5.70;4.10;;;17.20;47.60;;;;;;5016444;28;20188;-70
2023/09/17 04:38:56;;;;;;;5.47;3.60;;;17.20;47.30;;;;;;5014356;28;20254;-71
2023/09/17 04:41:21;;;;;;;4.00;3.23;;;17.10;47.80;;;;;;5016537;28;20450;-71
2023/09/17 04:43:47;;;;;;;4.00;3.60;;;17.20;48.80;;;;;;5015307;28;20226;-71
2023/09/17 04:46:13;;;;;;;4.47;3.70;;;17.20;47.90;;;;;;5014054;28;20576;-71
2023/09/17 04:48:39;;;;;;;4.50;3.73;;;17.20;47.70;;;;;;5013603;28;20180;-70
2023/09/17 04:51:07;;;;;;;4.37;3.57;;;17.30;47.80;;;;;;5013586;28;20180;-71
2023/09/17 04:53:33;;;;;;;4.20;3.23;;;17.30;48.50;;;;;;5011738;28;20999;-70
2023/09/17 04:55:59;;;;;;;4.30;3.23;;;17.20;49.20;;;;;;5013564;28;20418;-70
2023/09/17 04:58:25;;;;;;;5.10;3.30;;;17.30;49.20;;;;;;5013385;28;20287;-70
2023/09/17 05:00:53;;;;;;;5.80;3.40;;;17.40;47.90;;;;;;5013306;28;20187;-70
2023/09/17 05:03:19;;;;;;;5.50;3.80;;;17.40;47.90;;;;;;5013026;28;20413;-70
2023/09/17 05:05:46;;;;;;;4.40;3.43;;;17.40;47.90;;;;;;5012217;28;20459;-72
2023/09/17 05:08:13;;;;;;;4.70;3.97;;;17.40;47.90;;;;;;5013184;28;20423;-69
2023/09/17 05:10:39;;;;;;;5.27;4.00;;;17.40;47.30;;;;;;5013299;28;20493;-70
2023/09/17 05:13:06;;;;;;;5.77;4.10;;;17.40;46.80;;;;;;5013087;28;20865;-70
2023/09/17 05:15:31;;;;;;;5.87;3.50;;;17.40;47.80;;;;;;5013585;28;20195;-70
2023/09/17 05:17:57;;;;;;;4.57;4.10;;;17.40;47.80;;;;;;5012108;28;20935;-70
2023/09/17 05:20:23;;;;;;;5.93;4.67;;;17.40;47.60;;;;;;5012478;28;20206;-71
2023/09/17 05:22:49;;;;;;;4.30;3.70;;;17.50;47.70;;;;;;5012526;28;20231;-71
2023/09/17 05:25:14;;;;;;;4.60;4.17;;;17.50;47.70;;;;;;5014024;28;20490;-71
2023/09/17 05:27:40;;;;;;;5.77;3.97;;;17.60;47.10;;;;;;5013239;28;20171;-72
2023/09/17 05:30:07;;;;;;;5.50;3.53;;;17.70;47.50;;;;;;5013018;28;20171;-72
2023/09/17 05:32:33;;;;;;;4.07;3.33;;;17.70;47.40;;;;;;5012291;28;20975;-71
2023/09/17 05:34:59;;;;;;;6.90;4.33;;;17.80;47.00;;;;;;5011542;28;20414;-71
2023/09/17 05:37:26;;;;;;;4.97;3.90;;;17.90;45.70;;;;;;5014260;28;20718;-71
2023/09/17 05:39:51;;;;;;;4.40;3.70;;;18.00;43.30;;;;;;5016300;28;20939;-70
2023/09/17 05:42:17;;;;;;;4.60;4.07;;;18.20;43.10;;;;;;5015114;28;20450;-71
2023/09/17 05:44:43;;;;;;;5.67;3.90;;;18.30;42.30;;;;;;5015756;28;20250;-71
2023/09/17 05:47:08;;;;;;;5.23;3.63;;;18.20;41.90;;;;;;5015860;28;20756;-71
2023/09/17 05:49:34;;;;;;;4.07;3.30;;;18.40;42.20;;;;;;5015701;28;20469;-71
2023/09/17 05:52:00;;;;;;;5.63;3.50;;;18.50;40.40;;;;;;5015591;28;20192;-71
2023/09/17 05:54:26;;;;;;;3.27;2.30;;;18.70;39.90;;;;;;5015780;28;20442;-71
2023/09/17 05:56:52;;;;;;;4.87;3.30;;;18.60;39.50;;;;;;5015457;28;20180;-71
2023/09/17 05:59:17;;;;;;;4.23;3.83;;;18.60;38.60;;;;;;5030405;28;20427;-71
2023/09/17 06:01:43;;;;;;;3.37;2.67;;;19.10;37.10;;;;;;5014837;28;20200;-71
2023/09/17 06:04:08;;;;;;;4.30;3.37;;;19.40;37.80;;;;;;5015126;28;20536;-72
2023/09/17 06:06:34;;;;;;;4.27;2.90;;;19.10;36.50;;;;;;5016147;28;20575;-71
2023/09/17 06:09:00;;;;;;;4.30;3.60;;;19.20;35.90;;;;;;5016671;28;20172;-71
2023/09/17 06:11:25;;;;;;;5.57;4.43;;;19.40;35.10;;;;;;5014319;28;20184;-72
2023/09/17 06:13:51;;;;;;;4.03;3.33;;;19.10;34.50;;;;;;5016190;28;20168;-72
2023/09/17 06:16:16;;;;;;;5.57;4.00;;;19.10;34.70;;;;;;5016217;28;20184;-72
2023/09/17 06:18:42;;;;;;;4.50;3.57;;;19.30;34.60;;;;;;5015119;28;20184;-72
2023/09/17 06:21:08;;;;;;;5.10;4.03;;;19.20;34.20;;;;;;5015579;28;20275;-71
2023/09/17 06:23:33;;;;;;;6.20;4.10;;;19.70;33.40;;;;;;5015373;28;20690;-71
2023/09/17 06:25:59;;;;;;;3.73;3.20;;;20.50;32.40;;;;;;5015787;28;20580;-71
2023/09/17 06:28:26;;;;;;;5.03;3.60;;;20.10;29.70;;;;;;5015717;28;20176;-73
2023/09/17 06:30:52;;;;;;;4.00;3.00;;;21.10;29.90;;;;;;5014976;28;20890;-70
2023/09/17 06:33:18;;;;;;;5.07;3.80;;;20.70;28.50;;;;;;5014587;28;20474;-71
2023/09/17 06:35:43;;;;;;;5.30;3.33;;;21.90;23.60;;;;;;5036989;28;20431;-71
2023/09/17 06:38:09;;;;;;;4.20;2.80;;;22.10;20.70;;;;;;5017152;28;20196;-71
2023/09/17 06:40:34;;;;;;;6.00;3.30;;;22.10;19.90;;;;;;5015225;28;20226;-71
2023/09/17 06:43:00;;;;;;;4.23;3.57;;;22.00;20.20;;;;;;5016070;28;20702;-71
2023/09/17 06:45:26;;;;;;;6.10;3.87;;;22.00;20.30;;;;;;5014570;28;20195;-70
2023/09/17 06:47:51;;;;;;;5.60;3.00;;;22.10;20.30;;;;;;5014669;28;20176;-72
2023/09/17 06:50:17;;;;;;;3.80;3.50;;;22.30;20.00;;;;;;5015030;28;20168;-72
2023/09/17 06:52:42;;;;;;;4.10;3.47;;;22.70;19.30;;;;;;5015953;28;20191;-72
2023/09/17 06:55:09;;;;;;;5.43;3.80;;;24.50;16.80;;;;;;5013878;28;20171;-71
2023/09/17 06:57:34;;;;;;;3.83;3.50;;;26.90;10.20;;;;;;5015015;28;20656;-72
2023/09/17 07:00:00;;;;;;;4.33;3.73;;;27.20;7.50;;;;;;5014939;28;20437;-72
2023/09/17 07:02:26;;;;;;;4.90;3.97;;;27.40;6.30;;;;;;5015646;28;20624;-72
2023/09/17 07:04:51;;;;;;;4.53;4.13;;;27.10;6.10;;;;;;5020017;28;20553;-72
2023/09/17 07:07:17;;;;;;;4.60;4.17;;;27.00;7.00;;;;;;5023319;28;20242;-72
2023/09/17 07:09:43;;;;;;;3.97;3.57;;;27.10;6.00;;;;;;5017370;28;20187;-72
2023/09/17 07:12:08;;;;;;;4.63;2.83;;;26.70;6.30;;;;;;5017843;28;20196;-71
2023/09/17 07:14:34;;;;;;;4.00;3.07;;;26.20;7.10;;;;;;5017716;28;20172;-72
2023/09/17 07:17:00;;;;;;;4.20;3.33;;;25.90;7.40;;;;;;5016261;28;20266;-72
2023/09/17 07:19:27;;;;;;;3.90;3.50;;;25.70;8.20;;;;;;5017034;28;20518;-72
2023/09/17 07:21:52;;;;;;;7.60;3.03;;;25.70;8.50;;;;;;5017523;28;20203;-71
2023/09/17 07:24:18;;;;;;;4.07;3.43;;;25.40;9.40;;;;;;5012001;28;20450;-72
2023/09/17 07:26:44;;;;;;;3.90;3.60;;;25.40;9.50;;;;;;5013891;28;20215;-72
2023/09/17 07:29:09;;;;;;;6.70;3.50;;;25.70;9.00;;;;;;5012638;28;20622;-72
2023/09/17 07:31:35;;;;;;;4.10;3.50;;;25.70;9.30;;;;;;5000389;28;20624;-71
2023/09/17 07:34:01;;;;;;;3.80;3.03;;;25.60;10.40;;;;;;5016148;28;20186;-71
2023/09/17 07:36:27;;;;;;;3.67;3.33;;;25.60;10.40;;;;;;5015820;28;20209;-71
2023/09/17 07:38:52;;;;;;;3.50;3.03;;;25.60;9.90;;;;;;5016608;28;20431;-71
2023/09/17 07:41:18;;;;;;;3.53;3.20;;;25.40;10.80;;;;;;5013543;28;20721;-72
2023/09/17 07:43:43;;;;;;;3.67;3.30;;;25.60;10.50;;;;;;5017948;28;20705;-71
2023/09/17 07:46:13;;;;;;;4.33;3.60;;;25.70;10.50;;;;;;5019643;28;20326;-72
2023/09/17 07:48:39;;;;;;;3.53;2.77;;;25.80;9.70;;;;;;5016275;28;20567;-72
2023/09/17 07:51:05;;;;;;;6.10;3.50;;;25.90;9.90;;;;;;5019389;28;20430;-72
2023/09/17 07:53:32;;;;;;;6.93;3.20;;;26.00;10.10;;;;;;5019656;28;20434;-71
2023/09/17 07:55:58;;;;;;;3.13;2.70;;;25.70;10.70;;;;;;5018111;28;20427;-72
2023/09/17 07:58:23;;;;;;;3.80;3.30;;;26.10;9.30;;;;;;5017220;28;20430;-72
2023/09/17 08:00:49;;;;;;;3.30;3.00;;;26.30;9.10;;;;;;5014669;28;20921;-73
2023/09/17 08:03:18;;;;;;;3.90;3.27;;;26.20;9.10;;;;;;5014715;28;20211;-73
2023/09/17 08:05:45;;;;;;;6.23;2.70;;;26.20;8.80;;;;;;5014278;28;20191;-73
2023/09/17 08:08:11;;;;;;;3.33;3.03;;;26.10;9.20;;;;;;5013249;28;20529;-73
2023/09/17 08:10:37;;;;;;;3.50;2.93;;;26.00;10.60;;;;;;5014414;28;20423;-72
2023/09/17 08:13:03;;;;;;;3.20;2.53;;;26.10;10.60;;;;;;5014025;28;20471;-72
2023/09/17 08:15:29;;;;;;;4.17;3.40;;;26.40;10.80;;;;;;5015728;28;20596;-73
2023/09/17 08:17:56;;;;;;;4.60;3.53;;;26.20;8.50;;;;;;5015852;28;20427;-73
2023/09/17 08:20:22;;;;;;;4.40;3.53;;;26.20;9.20;;;;;;5015485;28;20418;-73
2023/09/17 08:22:49;;;;;;;4.30;3.67;;;26.40;9.40;;;;;;5015336;28;20469;-73
2023/09/17 08:25:15;;;;;;;5.43;4.10;;;26.80;8.80;;;;;;5026018;28;21003;-73
2023/09/17 08:27:41;;;;;;;4.23;3.83;;;27.30;7.60;;;;;;5018307;28;20430;-73
2023/09/17 08:30:11;;;;;;;4.03;3.60;;;27.50;7.70;;;;;;5010356;28;20185;-73
2023/09/17 08:32:37;;;;;;;12.67;4.40;;;27.60;7.50;;;;;;5005088;28;20453;-73
2023/09/17 08:35:03;;;;;;;4.17;3.60;;;27.40;7.20;;;;;;5015692;28;20487;-72
2023/09/17 08:37:29;;;;;;;5.07;4.50;;;27.50;6.90;;;;;;5015092;28;20423;-73
2023/09/17 08:39:54;;;;;;;3.80;3.40;;;27.90;6.60;;;;;;5011390;28;20453;-72
2023/09/17 08:42:21;;;;;;;5.33;4.67;;;28.20;5.60;;;;;;5011104;28;20204;-71
2023/09/17 08:44:49;;;;;;;5.03;3.90;;;28.20;5.30;;;;;;5013385;28;20168;-71
2023/09/17 08:47:14;;;;;;;4.27;3.87;;;28.10;5.20;;;;;;5014029;28;20836;-69
2023/09/17 08:49:40;;;;;;;6.10;4.03;;;27.90;5.20;;;;;;5012973;28;20437;-70
2023/09/17 08:52:08;;;;;;;4.90;4.33;;;27.50;6.50;;;;;;5013710;28;20230;-71
2023/09/17 08:54:53;;;;;;;4.80;4.30;;;27.20;6.20;;;;;;5014483;28;20180;-69
2023/09/17 08:57:23;;;;;;;5.13;4.00;;;27.00;7.30;;;;;;5012594;28;20431;-70
2023/09/17 09:00:10;;;;;;;4.50;3.80;;;26.40;7.20;;;;;;5011469;28;20474;-69
2023/09/17 09:02:51;;;;;;;5.80;3.77;;;26.00;9.20;;;;;;5010181;28;20524;-70
2023/09/17 09:05:19;;;;;;;4.07;3.77;;;26.10;8.80;;;;;;5011057;28;20470;-71
2023/09/17 09:07:47;;;;;;;9.23;3.53;;;26.10;6.50;;;;;;5007216;28;20434;-70
2023/09/17 09:10:14;;;;;;;5.17;3.40;;;26.00;6.90;;;;;;5012019;28;20956;-71
2023/09/17 09:12:44;;;;;;;5.20;3.87;;;26.10;6.20;;;;;;5009538;28;20434;-71
2023/09/17 09:15:10;;;;;;;8.53;4.17;;;26.10;6.50;;;;;;5011509;28;20452;-71
2023/09/17 09:17:36;;;;;;;4.20;3.10;;;26.20;6.20;;;;;;5011382;28;20423;-71
2023/09/17 09:20:04;;;;;;;4.73;4.27;;;26.40;5.70;;;;;;5025791;28;20464;-70
2023/09/17 09:22:30;;;;;;;5.90;4.07;;;26.60;4.70;;;;;;5008739;28;20204;-70
2023/09/17 09:24:56;;;;;;;7.83;4.17;;;26.60;3.80;;;;;;5010801;28;20934;-70
2023/09/17 09:27:21;;;;;;;5.47;3.80;;;26.50;4.10;;;;;;5009671;28;20218;-71
2023/09/17 09:29:47;;;;;;;4.13;3.50;;;26.60;4.20;;;;;;5009966;28;20184;-71
2023/09/17 09:32:13;;;;;;;5.17;3.70;;;26.90;3.00;;;;;;5010044;28;20977;-71
2023/09/17 09:34:41;;;;;;;3.50;3.20;;;26.90;2.70;;;;;;5009894;28;20429;-72
2023/09/17 09:37:08;;;;;;;4.30;3.90;;;26.90;2.70;;;;;;4988510;28;20180;-70
2023/09/17 09:39:37;;;;;;;6.03;4.10;;;26.90;2.90;;;;;;5005115;28;20427;-71
2023/09/17 09:42:08;;;;;;;3.80;3.50;;;26.90;2.50;;;;;;5008811;28;20450;-71
2023/09/17 09:44:36;;;;;;;4.83;3.90;;;27.10;2.70;;;;;;5009682;28;20422;-72
2023/09/17 09:47:02;;;;;;;5.53;4.07;;;27.20;2.40;;;;;;5010455;28;20565;-71
2023/09/17 09:49:28;;;;;;;5.33;3.30;;;27.30;2.10;;;;;;5010665;28;20448;-72
2023/09/17 09:51:57;;;;;;;4.67;4.10;;;27.30;2.10;;;;;;5012699;28;20445;-72
2023/09/17 09:54:22;;;;;;;3.60;3.30;;;27.50;1.70;;;;;;5010116;28;20431;-70
2023/09/17 09:56:49;;;;;;;6.53;4.37;;;27.60;1.70;;;;;;5010731;28;20480;-72
2023/09/17 09:59:16;;;;;;;5.07;4.10;;;27.70;1.20;;;;;;5014624;28;20322;-72
2023/09/17 10:01:42;;;;;;;6.97;4.13;;;27.90;1.20;;;;;;5013964;28;22270;-72
2023/09/17 10:04:09;;;;;;;5.13;4.20;;;27.90;1.30;;;;;;5014249;28;20422;-73
2023/09/17 10:06:37;;;;;;;9.73;5.30;;;27.80;1.90;;;;;;5012972;28;20454;-72
2023/09/17 10:09:03;;;;;;;9.07;4.47;;;28.00;1.30;;;;;;5013524;28;20411;-72
2023/09/17 10:11:30;;;;;;;4.10;3.67;;;28.10;1.00;;;;;;5012313;28;20469;-72
2023/09/17 10:14:06;;;;;;;5.00;4.10;;;28.20;1.00;;;;;;5012938;28;20411;-72
2023/09/17 10:16:36;;;;;;;5.27;3.90;;;28.00;1.00;;;;;;5012695;28;20461;-71
2023/09/17 10:19:04;;;;;;;5.70;3.80;;;27.90;1.00;;;;;;5012324;28;20509;-72
2023/09/17 10:21:37;;;;;;;4.03;3.73;;;28.00;1.00;;;;;;5010834;28;20437;-73
2023/09/17 10:24:03;;;;;;;4.57;3.50;;;28.20;1.00;;;;;;5012924;28;20411;-73
2023/09/17 10:26:35;;;;;;;4.73;4.30;;;28.40;1.00;;;;;;5013017;28;20474;-72
2023/09/17 10:29:02;;;;;;;4.47;4.07;;;28.60;1.00;;;;;;5012881;28;20402;-73
2023/09/17 10:31:29;;;;;;;5.93;4.00;;;28.60;1.00;;;;;;5012458;28;20407;-72
2023/09/17 10:33:55;;;;;;;4.53;4.13;;;28.50;1.00;;;;;;5012393;28;20461;-71
2023/09/17 10:36:22;;;;;;;3.93;3.53;;;28.70;1.00;;;;;;5012127;28;20411;-73
2023/09/17 10:38:50;;;;;;;9.93;4.30;;;28.90;1.00;;;;;;5016193;28;20195;-73
2023/09/17 10:41:17;;;;;;;7.23;4.00;;;29.30;1.00;;;;;;5016327;28;20423;-73
2023/09/17 10:43:44;;;;;;;4.53;3.97;;;29.60;1.00;;;;;;5015784;28;20431;-73
2023/09/17 10:46:12;;;;;;;4.60;4.20;;;29.70;1.00;;;;;;5016094;28;20810;-73
2023/09/17 10:48:40;;;;;;;5.07;4.50;;;29.90;1.00;;;;;;5016614;28;20411;-73
2023/09/17 10:51:07;;;;;;;4.37;3.77;;;30.00;1.00;;;;;;5016150;28;20594;-74
2023/09/17 10:53:38;;;;;;;4.87;4.27;;;30.10;1.00;;;;;;5017234;28;20512;-71
2023/09/17 10:56:09;;;;;;;4.90;4.50;;;30.20;1.00;;;;;;4979689;28;20435;-71
2023/09/17 10:58:41;;;;;;;6.10;4.33;;;30.40;1.00;;;;;;5012181;28;20430;-72
2023/09/17 11:01:15;;;;;;;5.10;4.70;;;30.50;1.00;;;;;;4996621;28;20424;-72
2023/09/17 11:03:58;;;;;;;4.70;4.30;;;30.40;1.00;;;;;;4997406;28;20470;-71
2023/09/17 11:06:25;;;;;;;4.50;4.10;;;30.30;1.00;;;;;;5016515;28;20454;-72
2023/09/17 11:08:53;;;;;;;4.30;4.00;;;30.40;1.00;;;;;;5014736;28;20430;-71
2023/09/17 11:11:21;;;;;;;4.03;3.70;;;30.60;1.00;;;;;;5015992;28;20418;-72
2023/09/17 11:13:46;;;;;;;5.00;4.60;;;30.60;1.00;;;;;;5016064;28;20772;-73
2023/09/17 11:16:15;;;;;;;5.57;5.03;;;30.70;1.00;;;;;;5015970;28;20437;-72
2023/09/17 11:18:45;;;;;;;4.70;4.40;;;30.80;1.00;;;;;;5009416;28;20185;-73
2023/09/17 11:21:12;;;;;;;5.30;5.00;;;30.80;1.00;;;;;;4997730;28;20426;-71
2023/09/17 11:23:46;;;;;;;5.10;4.80;;;30.80;1.00;;;;;;5000023;28;21011;-74
2023/09/17 11:26:19;;;;;;;6.90;5.50;;;30.70;1.00;;;;;;5015783;28;20466;-72
2023/09/17 11:28:50;;;;;;;5.10;4.17;;;30.50;1.00;;;;;;5031745;28;20916;-73
2023/09/17 11:31:19;;;;;;;5.63;4.40;;;30.60;1.00;;;;;;5014313;28;20458;-72
2023/09/17 11:33:45;;;;;;;6.43;4.80;;;;;;;;;;5014868;28;20772;-72
2023/09/17 11:36:14;;;;;;;4.97;4.20;;;;;;;;;;5008152;28;20423;-71
2023/09/17 11:38:46;;;;;;;4.90;4.40;;;;;;;;;;4995806;28;20603;-73
2023/09/17 11:41:15;;;;;;;6.27;4.90;;;;;;;;;;4995771;28;20444;-73
2023/09/17 11:43:48;;;;;;;4.60;4.20;;;;;;;;;;5013562;28;20438;-73
2023/09/17 11:46:15;;;;;;;6.30;3.83;;;;;;;;;;5014893;28;20556;-72
2023/09/17 11:48:44;;;;;;;4.70;4.40;;;;;;;;;;5014402;28;20833;-74
2023/09/17 11:51:26;;;;;;;4.67;4.27;;;;;;;;;;5013540;28;20419;-72
2023/09/17 11:53:55;;;;;;;4.10;3.83;;;;;;;;;;5013827;28;20933;-72
2023/09/17 11:56:21;;;;;;;4.50;4.20;;;;;;;;;;5014805;28;20421;-73
2023/09/17 11:59:04;;;;;;;4.20;3.90;;;;;;;;;;5015160;28;20782;-75
2023/09/17 12:01:32;;;;;;;12.83;5.10;;;;;;;;;;5014137;28;20425;-72
2023/09/17 12:03:58;;;;;;;5.87;4.57;;;;;;;;;;5014786;28;20433;-72
2023/09/17 12:06:25;;;;;;;6.53;4.97;;;;;;;;;;5017087;28;20462;-73
2023/09/17 12:08:51;;;;;;;4.57;4.17;;;;;;;;;;5005772;28;20478;-72
2023/09/17 12:11:24;;;;;;;3.90;3.70;;;;;;;;;;4995092;28;20450;-71
2023/09/17 12:13:53;;;;;;;4.10;3.80;;;;;;;;;;4995980;28;20420;-72
2023/09/17 12:16:26;;;;;;;4.90;4.60;;;;;;;;;;4996786;28;20420;-72
2023/09/17 12:18:52;;;;;;;4.33;4.03;;;;;;;;;;5012420;28;20796;-72
2023/09/17 12:21:19;;;;;;;4.43;4.03;;;;;;;;;;5014290;28;20436;-74
2023/09/17 12:26:46;;;;;;;4.50;4.10;;;;;;;;;;5016627;28;21055;-72
2023/09/17 12:29:13;;;;;;;4.97;4.67;;;;;;;;;;5015818;28;20422;-73
2023/09/17 12:31:40;;;;;;;4.63;3.90;;;31.70;1.00;;;;;;5014730;28;20540;-73
2023/09/17 12:34:06;;;;;;;4.33;4.10;;;31.70;1.00;;;;;;5015763;28;20407;-72
2023/09/17 12:36:32;;;;;;;12.47;4.93;;;31.50;1.00;;;;;;5016518;28;20924;-73
2023/09/17 12:38:57;;;;;;;4.97;4.57;;;31.60;1.00;;;;;;5016082;28;20522;-73
2023/09/17 12:41:23;;;;;;;4.60;4.30;;;31.60;1.00;;;;;;5015292;28;20438;-72
2023/09/17 12:43:49;;;;;;;4.53;4.23;;;31.60;1.00;;;;;;5015827;28;20191;-72
2023/09/17 12:46:15;;;;;;;4.23;3.93;;;31.80;1.00;;;;;;5015007;28;20200;-72
2023/09/17 12:48:41;;;;;;;4.37;4.07;;;31.90;1.00;;;;;;5013372;28;20933;-72
2023/09/17 12:51:07;;;;;;;4.70;4.30;;;31.80;1.00;;;;;;5014312;28;20701;-72
2023/09/17 12:53:33;;;;;;;4.67;4.27;;;31.70;1.00;;;;;;5014472;28;20538;-72
2023/09/17 12:56:00;;;;;;;5.17;4.77;;;31.70;1.00;;;;;;5015379;28;20176;-73
2023/09/17 12:58:26;;;;;;;4.47;4.17;;;31.90;1.00;;;;;;5014761;28;20414;-72
2023/09/17 13:00:52;;;;;;;4.90;4.50;;;31.80;1.00;;;;;;5012508;28;20419;-72